Time;durP1;ratioP1;P1;durP2;ratioP2;P2;SDS_P1;SDS_P2;PMS_P1;PMS_P2;Temp;Humidity;BMP_temperature;BMP_pressure;BME280_temperature;BME280_humidity;BME280_pressure;Samples;Min_cycle;Max_cycle;Signal;HPM_P1;HPM_P2
2022/01/30 00:00:07;;;;;;;;;;;8.20;99.90;;;7.52;100.00;99965.84;5078218;28;19946;-64
2022/01/30 00:02:33;;;;;;;;;;;8.20;99.90;;;7.78;100.00;100002.22;5078287;28;19927;-64
2022/01/30 00:04:58;;;;;;;;;;;8.20;99.90;;;7.66;100.00;99961.78;5078352;28;19924;-64
2022/01/30 00:07:24;;;;;;;;;;;8.30;99.90;;;7.76;100.00;99994.59;5078111;28;19927;-65
2022/01/30 00:09:50;;;;;;;;;;;8.20;99.90;;;7.56;100.00;99969.09;5095440;28;19943;-64
2022/01/30 00:12:19;;;;;;;;;;;8.20;99.90;;;7.58;100.00;99970.66;5078412;28;19916;-64
2022/01/30 00:14:44;;;;;;;;;;;8.20;99.90;;;7.84;100.00;100012.19;5095966;28;19920;-65
2022/01/30 00:17:20;;;;;;;;;;;8.30;99.90;;;7.81;100.00;100010.63;5077791;28;19920;-64
2022/01/30 00:19:53;;;;;;;;;;;8.20;99.90;;;7.80;100.00;100013.25;5077894;28;19924;-65
2022/01/30 00:25:13;;;;;;;;;;;8.20;99.90;;;7.69;100.00;99987.28;5046295;28;19927;-64
2022/01/30 00:27:55;;;;;;;;;;;8.30;99.90;;;7.54;100.00;99955.50;5095928;28;19924;-64
2022/01/30 00:30:21;;;;;;;;;;;8.30;99.90;;;7.62;100.00;99958.50;5079775;28;19924;-64
2022/01/30 00:32:46;;;;;;;;;;;8.30;99.90;;;7.82;100.00;99986.59;5095487;28;19923;-64
2022/01/30 00:35:12;;;;;;;;;;;8.30;99.90;;;7.79;100.00;99976.47;5095684;28;19927;-64
2022/01/30 00:37:41;;;;;;;;;;;8.30;99.90;;;7.88;100.00;100006.81;5077515;28;20556;-64
2022/01/30 00:40:07;;;;;;;;;;;8.30;99.90;;;7.87;100.00;99976.06;5095843;28;19970;-64
2022/01/30 00:42:33;;;;;;;;;;;8.30;99.90;;;7.83;100.00;99992.53;5060741;28;19923;-64
2022/01/30 00:44:59;;;;;;;;;;;8.30;99.90;;;7.54;100.00;99942.66;5077472;28;19928;-64
2022/01/30 00:47:25;;;;;;;;;;;8.30;99.90;;;7.82;100.00;100004.56;5095707;28;19924;-64
2022/01/30 00:49:50;;;;;;;;;;;8.30;99.90;;;7.90;100.00;99999.03;5077303;28;19931;-64
2022/01/30 00:52:17;;;;;;;;;;;8.30;99.90;;;7.51;100.00;99942.81;5095418;28;19927;-64
2022/01/30 00:54:44;;;;;;;;;;;8.30;99.90;;;7.79;100.00;100001.31;5077101;28;20035;-64
2022/01/30 00:57:10;;;;;;;;;;;8.30;99.90;;;7.57;100.00;99950.22;5095380;28;20369;-64
2022/01/30 00:59:36;;;;;;;;;;;8.30;99.90;;;7.79;100.00;99991.03;5095028;28;19924;-64
2022/01/30 01:02:02;;;;;;;;;;;8.30;99.90;;;7.84;100.00;100015.59;5077701;28;19952;-64
2022/01/30 01:04:27;;;;;;;;;;;8.30;99.90;;;7.84;100.00;100025.03;5077291;28;19924;-64
2022/01/30 01:06:53;;;;;;;;;;;8.30;99.90;;;7.82;100.00;100014.03;5095070;28;19920;-64
2022/01/30 01:09:22;;;;;;;;;;;8.30;99.90;;;7.78;100.00;100012.50;5095457;28;19950;-64
2022/01/30 01:12:11;;;;;;;;;;;8.30;99.90;;;7.78;100.00;100022.78;5095330;28;19931;-64
2022/01/30 01:25:19;;;;;;;;;;;8.30;99.90;;;7.74;100.00;100032.34;5065316;28;19927;-64
2022/01/30 01:27:45;;;;;;;;;;;8.30;99.90;;;7.79;100.00;100034.72;5076364;28;19920;-64
2022/01/30 01:30:11;;;;;;;;;;;8.30;99.90;;;7.76;100.00;100022.84;5094639;28;19924;-64
2022/01/30 01:32:37;;;;;;;;;;;8.20;99.90;;;7.78;100.00;100012.50;5094442;28;19920;-64
2022/01/30 01:35:03;;;;;;;;;;;8.30;99.90;;;7.74;100.00;100001.53;5094713;28;19961;-64
2022/01/30 01:37:29;;;;;;;;;;;8.30;99.90;;;7.74;100.00;100006.66;5076225;28;19924;-64
2022/01/30 01:39:54;;;;;;;;;;;8.30;99.90;;;7.77;100.00;100008.25;5094334;28;19957;-64
2022/01/30 01:42:20;;;;;;;;;;;8.30;99.90;;;7.75;100.00;100017.78;5093364;28;19970;-64
2022/01/30 01:44:50;;;;;;;;;;;8.20;99.90;;;7.57;100.00;99986.19;5094045;28;19961;-64
2022/01/30 01:47:19;;;;;;;;;;;8.20;99.90;;;7.77;100.00;100024.50;5060552;28;20014;-64
2022/01/30 01:49:46;;;;;;;;;;;8.30;99.90;;;7.70;100.00;100014.63;5076677;28;19920;-64
2022/01/30 01:52:19;;;;;;;;;;;8.30;99.90;;;7.77;100.00;100032.22;5094428;28;19920;-64
2022/01/30 01:54:55;;;;;;;;;;;8.30;99.90;;;7.84;100.00;100028.44;5094166;28;19924;-64
2022/01/30 01:57:21;;;;;;;;;;;8.30;99.90;;;7.81;100.00;100025.19;5076670;28;20380;-64
2022/01/30 01:59:47;;;;;;;;;;;8.30;99.90;;;7.28;100.00;99933.72;5094138;28;19959;-63
2022/01/30 02:02:13;;;;;;;;;;;8.30;99.90;;;7.84;100.00;100015.59;5076332;28;19942;-64
2022/01/30 02:04:40;;;;;;;;;;;8.30;99.90;;;7.71;100.00;99991.44;5093890;28;20308;-64
2022/01/30 02:09:38;;;;;;;;;;;8.30;99.90;;;7.68;100.00;99999.28;5060913;28;19916;-63
2022/01/30 02:12:05;;;;;;;;;;;8.20;99.90;;;7.25;100.00;99931.28;5059529;28;20406;-64
2022/01/30 02:14:46;;;;;;;;;;;8.20;99.90;;;7.57;100.00;100001.59;5094141;28;19920;-64
2022/01/30 02:25:49;;;;;;;;;;;8.10;99.90;;;7.62;100.00;100017.56;5075610;28;19928;-64
2022/01/30 02:28:18;;;;;;;;;;;8.10;99.90;;;7.62;100.00;100009.88;5093948;28;20047;-64
2022/01/30 02:30:52;;;;;;;;;;;8.10;99.90;;;7.71;100.00;100013.72;5093027;28;19924;-63
2022/01/30 02:33:21;;;;;;;;;;;8.10;99.90;;;7.49;100.00;99975.47;5076958;28;19916;-64
2022/01/30 02:35:47;;;;;;;;;;;8.10;99.90;;;7.65;100.00;100007.16;5093583;28;19920;-64
2022/01/30 02:38:15;;;;;;;;;;;8.10;99.90;;;7.55;100.00;99991.38;5093450;28;19920;-64
2022/01/30 02:40:43;;;;;;;;;;;8.10;99.90;;;7.08;100.00;99919.28;5093527;28;19920;-63
2022/01/30 02:43:09;;;;;;;;;;;8.10;99.90;;;7.63;100.00;99991.00;5093675;28;19930;-64
2022/01/30 02:45:38;;;;;;;;;;;8.10;99.90;;;7.61;100.00;99988.50;5093706;28;19920;-64
2022/01/30 02:52:58;;;;;;;;;;;8.00;99.90;;;7.24;100.00;99951.00;5093743;28;20089;-63
2022/01/30 02:55:24;;;;;;;;;;;8.00;99.90;;;7.54;100.00;100006.84;5093389;28;19920;-64
2022/01/30 02:57:50;;;;;;;;;;;8.00;99.90;;;7.29;100.00;99963.59;5093301;28;19920;-63
2022/01/30 03:00:16;;;;;;;;;;;8.00;99.90;;;7.46;100.00;100002.09;5058914;28;19932;-64
2022/01/30 03:02:41;;;;;;;;;;;8.00;99.90;;;7.44;100.00;100008.22;5075418;28;19985;-63
2022/01/30 03:05:07;;;;;;;;;;;7.90;99.90;;;7.45;100.00;100004.75;5075525;28;20377;-64
2022/01/30 03:07:33;;;;;;;;;;;7.90;99.90;;;7.43;100.00;100012.53;5075421;28;19916;-63
2022/01/30 03:09:59;;;;;;;;;;;7.90;99.90;;;7.42;100.00;100015.16;5093178;28;19932;-64
2022/01/30 03:12:25;;;;;;;;;;;7.90;99.90;;;7.47;100.00;100026.06;5075165;28;19920;-63
2022/01/30 03:14:50;;;;;;;;;;;7.90;99.90;;;7.44;100.00;100013.34;5075277;28;19923;-63
2022/01/30 03:17:16;;;;;;;;;;;7.90;99.90;;;7.44;100.00;100026.19;5093350;28;19921;-63
2022/01/30 03:19:42;;;;;;;;;;;7.90;99.90;;;7.22;100.00;99983.63;5091634;28;19920;-63
2022/01/30 03:22:08;;;;;;;;;;;7.90;99.90;;;7.50;100.00;100034.41;5093491;28;19927;-63
2022/01/30 03:24:36;;;;;;;;;;;7.90;99.90;;;7.46;100.00;100026.94;5093321;28;19920;-64
2022/01/30 03:27:06;;;;;;;;;;;8.00;99.90;;;7.51;100.00;100045.50;5093059;28;19920;-63
2022/01/30 03:29:32;;;;;;;;;;;8.00;99.90;;;7.48;100.00;100045.69;5093112;28;20357;-63
2022/01/30 03:31:58;;;;;;;;;;;8.00;99.90;;;7.53;100.00;100056.56;5092766;28;20371;-63
2022/01/30 03:34:24;;;;;;;;;;;8.00;99.90;;;7.48;100.00;100056.78;5093269;28;19926;-64
2022/01/30 03:36:50;;;;;;;;;;;7.90;99.90;;;7.50;100.00;100054.94;5092966;28;19965;-64
2022/01/30 03:39:16;;;;;;;;;;;8.00;99.90;;;7.54;100.00;100061.63;5058161;28;19916;-64
2022/01/30 03:41:41;;;;;;;;;;;8.00;99.90;;;7.31;100.00;100018.28;5093089;28;19927;-62
2022/01/30 03:44:07;;;;;;;;;;;8.00;99.90;;;7.53;100.00;100059.13;5093415;28;19993;-64
2022/01/30 03:46:33;;;;;;;;;;;8.00;99.90;;;7.55;100.00;100054.75;5061333;28;19920;-65
2022/01/30 03:48:58;;;;;;;;;;;8.00;99.90;;;7.22;100.00;100013.56;5096640;28;19924;-63
2022/01/30 03:51:24;;;;;;;;;;;8.00;99.90;;;7.52;100.00;100060.03;5096786;28;19943;-64
2022/01/30 03:53:50;;;;;;;;;;;8.00;99.90;;;7.50;100.00;100060.09;5096478;28;20369;-63
2022/01/30 03:56:16;;;;;;;;;;;8.00;99.90;;;7.44;100.00;100057.81;5096678;28;19920;-63
2022/01/30 03:58:41;;;;;;;;;;;8.00;99.90;;;7.20;100.00;100034.19;5096565;28;20315;-63
2022/01/30 04:01:07;;;;;;;;;;;7.90;99.90;;;7.17;100.00;100020.66;5078286;28;19920;-63
2022/01/30 04:03:33;;;;;;;;;;;7.90;99.90;;;7.39;100.00;100061.53;5096242;28;19920;-63
2022/01/30 04:05:58;;;;;;;;;;;8.00;99.90;;;7.47;100.00;100070.53;5078169;28;20044;-64
2022/01/30 04:08:24;;;;;;;;;;;8.00;99.90;;;7.46;100.00;100078.31;5096430;28;20391;-64
2022/01/30 04:10:50;;;;;;;;;;;8.00;99.90;;;7.50;100.00;100074.66;5078162;28;20288;-63
2022/01/30 04:13:16;;;;;;;;;;;8.00;99.90;;;7.44;100.00;100075.81;5096322;28;19927;-64
2022/01/30 04:15:42;;;;;;;;;;;7.90;99.90;;;7.37;100.00;100071.03;5096333;28;20427;-64
2022/01/30 04:18:08;;;;;;;;;;;7.90;99.90;;;7.35;100.00;100081.38;5095967;28;20014;-64
2022/01/30 04:20:34;;;;;;;;;;;7.90;99.90;;;7.27;100.00;100086.03;5077989;28;20337;-63
2022/01/30 04:23:00;;;;;;;;;;;7.80;99.90;;;7.25;100.00;100075.00;5077633;28;19927;-63
2022/01/30 04:25:25;;;;;;;;;;;7.80;99.90;;;6.94;100.00;100028.63;5096118;28;19924;-63
2022/01/30 04:27:51;;;;;;;;;;;7.70;99.90;;;6.96;100.00;100034.50;5094506;28;19971;-64
2022/01/30 04:30:17;;;;;;;;;;;7.70;99.90;;;7.20;100.00;100085.50;5095740;28;19930;-64
2022/01/30 04:32:44;;;;;;;;;;;7.70;99.90;;;7.10;100.00;100070.59;5077489;28;19920;-63
2022/01/30 04:35:19;;;;;;;;;;;7.70;99.90;;;7.15;100.00;100079.78;5078161;28;20428;-65
2022/01/30 04:38:01;;;;;;;;;;;7.60;99.90;;;6.91;100.00;100036.47;5095340;28;19923;-63
2022/01/30 05:01:58;;;;;;;;;;;7.40;99.90;;;6.88;100.00;100084.44;5095510;28;19994;-64
2022/01/30 05:04:44;;;;;;;;;;;7.40;99.90;;;6.81;100.00;100070.25;5095305;28;19927;-63
2022/01/30 05:09:36;;;;;;;;;;;7.30;99.90;;;6.55;100.00;100046.66;5095197;28;19920;-64
2022/01/30 05:12:02;;;;;;;;;;;7.30;99.90;;;6.71;100.00;100079.25;5077022;28;20402;-64
2022/01/30 05:14:33;;;;;;;;;;;7.20;99.90;;;6.68;100.00;100079.38;5095323;28;19923;-64
2022/01/30 05:16:59;;;;;;;;;;;7.20;99.90;;;6.66;100.00;100081.19;5094616;28;20297;-65
2022/01/30 05:19:26;;;;;;;;;;;7.10;99.90;;;6.59;100.00;100073.84;5095097;28;19927;-65
2022/01/30 05:21:52;;;;;;;;;;;7.10;99.90;;;6.59;100.00;100089.22;5094856;28;19920;-63
2022/01/30 05:24:17;;;;;;;;;;;7.10;99.90;;;6.58;100.00;100102.94;5094624;28;20052;-64
2022/01/30 05:26:44;;;;;;;;;;;7.10;99.90;;;6.49;100.00;100094.75;5094664;28;19924;-64
2022/01/30 05:29:09;;;;;;;;;;;7.00;99.90;;;6.33;100.00;100073.28;5076450;28;19924;-65
2022/01/30 05:31:35;;;;;;;;;;;7.00;99.90;;;6.54;100.00;100121.91;5076480;28;19920;-63
2022/01/30 05:34:01;;;;;;;;;;;7.00;99.90;;;6.04;100.00;100036.09;5094542;28;19921;-63
2022/01/30 05:36:27;;;;;;;;;;;7.00;99.90;;;6.28;100.00;100088.00;5094741;28;20297;-63
2022/01/30 05:38:53;;;;;;;;;;;7.00;99.90;;;6.54;100.00;100127.03;5059446;28;20365;-63
2022/01/30 05:41:19;;;;;;;;;;;7.00;99.90;;;6.57;100.00;100137.16;5094733;28;19924;-65
2022/01/30 05:43:51;;;;;;;;;;;7.00;99.90;;;6.45;100.00;100141.09;5094572;28;19959;-64
2022/01/30 05:46:28;;;;;;;;;;;7.00;99.90;;;6.49;100.00;100147.75;5094425;28;19942;-63
2022/01/30 05:48:54;;;;;;;;;;;7.00;99.90;;;6.51;100.00;100143.38;5077839;28;19920;-63
2022/01/30 05:51:20;;;;;;;;;;;7.00;99.90;;;6.22;100.00;100118.19;5094394;28;19920;-63
2022/01/30 05:53:45;;;;;;;;;;;7.00;99.90;;;6.24;100.00;100127.47;5094464;28;19938;-63
2022/01/30 05:56:12;;;;;;;;;;;7.00;99.90;;;6.52;100.00;100185.22;5059312;28;19916;-63
2022/01/30 05:58:39;;;;;;;;;;;7.00;99.90;;;6.50;100.00;100177.63;5094053;28;20360;-62
2022/01/30 06:01:04;;;;;;;;;;;7.00;99.90;;;6.61;100.00;100193.38;5059367;28;19920;-63
2022/01/30 06:03:30;;;;;;;;;;;7.00;99.90;;;6.58;100.00;100185.81;5094298;28;19928;-63
2022/01/30 06:05:56;;;;;;;;;;;7.00;99.90;;;6.67;100.00;100202.53;5075902;28;19988;-64
2022/01/30 06:08:44;;;;;;;;;;;7.00;99.90;;;6.16;100.00;100119.28;5094076;28;19920;-63
2022/01/30 06:11:10;;;;;;;;;;;7.10;99.90;;;6.40;100.00;100158.41;5093935;28;19924;-63
2022/01/30 06:13:36;;;;;;;;;;;7.10;99.90;;;6.40;100.00;100166.09;5076188;28;19966;-64
2022/01/30 06:16:02;;;;;;;;;;;7.10;99.90;;;6.63;100.00;100201.00;5093901;28;19924;-63
2022/01/30 06:18:27;;;;;;;;;;;7.10;99.90;;;6.73;100.00;100215.94;5075651;28;19920;-63
2022/01/30 06:20:53;;;;;;;;;;;7.20;99.90;;;6.59;100.00;100194.34;5093837;28;19928;-63
2022/01/30 06:23:22;;;;;;;;;;;7.20;99.90;;;6.55;100.00;100182.53;5042530;28;19965;-64
2022/01/30 06:25:51;;;;;;;;;;;7.20;99.90;;;6.80;100.00;100226.75;5075899;28;19938;-64
2022/01/30 06:28:16;;;;;;;;;;;7.20;99.90;;;6.56;100.00;100181.66;5094472;28;19927;-63
2022/01/30 06:30:42;;;;;;;;;;;7.30;99.90;;;6.55;100.00;100185.94;5075779;28;20276;-64
2022/01/30 06:33:08;;;;;;;;;;;7.30;99.90;;;6.66;100.00;100206.00;5093343;28;19920;-64
2022/01/30 06:35:33;;;;;;;;;;;7.30;99.90;;;6.51;100.00;100178.47;5094195;28;19920;-64
2022/01/30 06:38:01;;;;;;;;;;;7.30;99.90;;;6.88;100.00;100242.63;5075543;28;19924;-64
2022/01/30 06:40:27;;;;;;;;;;;7.30;99.90;;;6.86;100.00;100224.75;5093468;28;20336;-64
2022/01/30 06:42:52;;;;;;;;;;;7.30;99.90;;;6.90;100.00;100234.88;5093652;28;19965;-63
2022/01/30 06:45:19;;;;;;;;;;;7.30;99.90;;;6.87;100.00;100228.97;5093824;28;20392;-64
2022/01/30 06:47:45;;;;;;;;;;;7.30;99.90;;;6.86;100.00;100232.44;5075870;28;19927;-64
2022/01/30 06:50:11;;;;;;;;;;;7.30;99.90;;;6.76;100.00;100212.38;5058853;28;19960;-64
2022/01/30 06:52:37;;;;;;;;;;;7.30;99.90;;;6.90;100.00;100219.50;5075469;28;20022;-64
2022/01/30 06:55:03;;;;;;;;;;;7.40;99.90;;;6.78;100.00;100223.41;5093158;28;19927;-64
2022/01/30 06:57:29;;;;;;;;;;;7.30;99.90;;;6.84;100.00;100235.97;5093617;28;19924;-64
2022/01/30 06:59:55;;;;;;;;;;;7.40;99.90;;;6.82;100.00;100236.06;5093079;28;20278;-63
2022/01/30 07:02:21;;;;;;;;;;;7.30;99.90;;;6.61;100.00;100205.34;5093511;28;20382;-64
2022/01/30 07:04:46;;;;;;;;;;;7.30;99.90;;;6.81;100.00;100239.50;5093624;28;20327;-64
2022/01/30 07:07:13;;;;;;;;;;;7.30;99.90;;;6.80;100.00;100244.72;5093263;28;20282;-64
2022/01/30 07:09:38;;;;;;;;;;;7.30;99.90;;;6.83;100.00;100249.72;5075603;28;19920;-64
2022/01/30 07:12:05;;;;;;;;;;;7.30;99.90;;;6.72;100.00;100245.03;5093241;28;20296;-64
2022/01/30 07:14:30;;;;;;;;;;;7.30;99.90;;;6.73;100.00;100258.69;5093051;28;20015;-64
2022/01/30 07:16:56;;;;;;;;;;;7.30;99.90;;;6.78;100.00;100264.44;5092904;28;19927;-64
2022/01/30 07:19:22;;;;;;;;;;;7.20;99.90;;;6.79;100.00;100261.00;5093450;28;19916;-64
2022/01/30 07:21:48;;;;;;;;;;;7.20;99.90;;;6.71;100.00;100263.03;5078805;28;20380;-64
2022/01/30 07:24:13;;;;;;;;;;;7.30;99.90;;;6.80;100.00;100280.59;5097095;28;20295;-64
2022/01/30 07:26:39;;;;;;;;;;;7.20;99.90;;;6.83;100.00;100283.06;5097585;28;20368;-64
2022/01/30 07:29:05;;;;;;;;;;;7.30;99.90;;;6.78;100.00;100279.84;5078748;28;19928;-64
2022/01/30 07:31:32;;;;;;;;;;;7.30;99.90;;;6.85;100.00;100294.91;5097392;28;19932;-64
2022/01/30 07:33:58;;;;;;;;;;;7.30;99.90;;;6.82;100.00;100294.22;5096840;28;19924;-64
2022/01/30 07:36:24;;;;;;;;;;;7.30;99.60;;;6.84;100.00;100297.53;5096778;28;19927;-64
2022/01/30 07:38:50;;;;;;;;;;;7.30;99.40;;;6.58;100.00;100249.91;5097232;28;19924;-64
2022/01/30 07:41:15;;;;;;;;;;;7.30;99.30;;;6.89;100.00;100308.44;5078615;28;19924;-64
2022/01/30 07:43:41;;;;;;;;;;;7.40;99.30;;;6.96;100.00;100307.28;5097223;28;20262;-64
2022/01/30 07:46:07;;;;;;;;;;;7.40;99.20;;;6.88;100.00;100317.88;5061713;28;19969;-64
2022/01/30 07:48:32;;;;;;;;;;;7.40;98.90;;;6.95;100.00;100326.13;5078852;28;19936;-64
2022/01/30 07:50:58;;;;;;;;;;;7.40;98.40;;;6.89;100.00;100326.41;5078359;28;20383;-64
2022/01/30 07:53:24;;;;;;;;;;;7.40;98.50;;;6.99;100.00;100329.41;5078713;28;19916;-64
2022/01/30 07:55:49;;;;;;;;;;;7.40;98.00;;;6.97;100.00;100334.59;5078412;28;20374;-64
2022/01/30 07:58:15;;;;;;;;;;;7.40;97.80;;;6.98;100.00;100338.00;5095907;28;19920;-64
2022/01/30 08:00:41;;;;;;;;;;;7.40;97.80;;;6.97;100.00;100339.72;5096688;28;19924;-64
2022/01/30 08:03:07;;;;;;;;;;;7.40;97.70;;;6.87;100.00;100334.16;5096197;28;19920;-64
2022/01/30 08:05:32;;;;;;;;;;;7.40;97.50;;;6.75;100.00;100321.03;5096547;28;19920;-64
2022/01/30 08:07:58;;;;;;;;;;;7.40;97.40;;;7.03;100.00;100328.38;5077998;28;19926;-63
2022/01/30 08:10:24;;;;;;;;;;;7.40;97.60;;;7.08;100.00;100290.53;5078397;28;19927;-64
2022/01/30 08:12:49;;;;;;;;;;;7.60;97.80;;;7.82;100.00;100342.84;5096118;28;20368;-64
2022/01/30 08:15:15;;;;;;;;;;;7.80;98.00;;;8.24;100.00;100332.28;5078054;28;19920;-64
2022/01/30 08:17:41;;;;;;;;;;;8.20;97.00;;;8.48;100.00;100336.31;5078135;28;19920;-64
2022/01/30 08:20:07;;;;;;;;;;;8.60;96.30;;;8.41;100.00;100329.78;5077859;28;19942;-64
2022/01/30 08:22:46;;;;;;;;;;;8.80;95.50;;;8.08;100.00;100285.09;5078185;28;19973;-64
2022/01/30 08:25:12;;;;;;;;;;;8.80;94.70;;;8.09;100.00;100304.75;5096034;28;19924;-64
2022/01/30 08:27:38;;;;;;;;;;;8.80;93.90;;;7.82;100.00;100289.75;5078030;28;19924;-64
2022/01/30 08:30:05;;;;;;;;;;;8.70;94.00;;;7.79;100.00;100264.19;5077455;28;19924;-64
2022/01/30 08:32:30;;;;;;;;;;;8.60;93.80;;;8.37;100.00;100305.97;5077363;28;19920;-64
2022/01/30 08:34:57;;;;;;;;;;;8.70;93.90;;;8.71;100.00;100304.31;5095998;28;19927;-65
2022/01/30 08:37:23;;;;;;;;;;;8.90;93.60;;;8.87;100.00;100289.78;5095656;28;19920;-64
2022/01/30 08:39:49;;;;;;;;;;;9.20;92.40;;;9.27;100.00;100308.31;5095598;28;19920;-64
2022/01/30 08:42:15;;;;;;;;;;;9.50;91.60;;;9.59;100.00;100298.88;5095637;28;19920;-64
2022/01/30 08:44:40;;;;;;;;;;;9.80;90.40;;;9.64;91.40;100299.44;5096046;28;19965;-64
2022/01/30 08:47:06;;;;;;;;;;;10.00;85.30;;;9.86;86.94;100300.81;5060891;28;20270;-64
2022/01/30 08:49:32;;;;;;;;;;;10.20;82.60;;;10.03;86.41;100304.22;5077699;28;19927;-64
2022/01/30 08:51:57;;;;;;;;;;;10.40;81.70;;;10.03;82.32;100271.53;5095638;28;19930;-64
2022/01/30 08:54:23;;;;;;;;;;;10.50;81.00;;;10.30;78.64;100310.41;5077223;28;20334;-64
2022/01/30 08:56:49;;;;;;;;;;;10.70;79.30;;;10.55;72.48;100304.69;5077553;28;19973;-65
2022/01/30 08:59:14;;;;;;;;;;;10.90;76.90;;;10.58;69.35;100286.47;5076924;28;19924;-61
2022/01/30 09:01:40;;;;;;;;;;;11.10;74.10;;;10.93;69.32;100295.56;5095594;28;19921;-61
2022/01/30 09:04:06;;;;;;;;;;;11.40;73.30;;;10.86;61.50;100291.69;5095164;28;19920;-61
2022/01/30 09:06:32;;;;;;;;;;;11.60;68.80;;;11.16;60.31;100233.97;5095041;28;19927;-62
2022/01/30 09:09:02;;;;;;;;;;;11.90;65.90;;;11.54;57.04;100242.75;5095006;28;19932;-62
2022/01/30 09:11:28;;;;;;;;;;;12.40;64.70;;;12.13;55.33;100284.72;5095405;28;20009;-62
2022/01/30 09:13:54;;;;;;;;;;;13.50;59.70;;;12.80;53.52;100269.94;5095325;28;19920;-63
2022/01/30 09:16:19;;;;;;;;;;;13.80;59.60;;;13.03;49.13;100273.53;5094935;28;20270;-60
2022/01/30 09:18:45;;;;;;;;;;;14.60;56.10;;;14.14;46.97;100299.44;5076767;28;19927;-61
2022/01/30 09:21:11;;;;;;;;;;;15.40;53.30;;;15.12;43.89;100286.88;5095219;28;20379;-61
2022/01/30 09:23:37;;;;;;;;;;;16.00;51.00;;;15.70;42.74;100266.75;5095039;28;20014;-61
2022/01/30 09:26:03;;;;;;;;;;;16.80;49.30;;;16.19;42.41;100296.66;5094773;28;19939;-62
2022/01/30 09:28:28;;;;;;;;;;;17.30;48.10;;;15.99;41.40;100296.47;5094936;28;19970;-61
2022/01/30 09:30:54;;;;;;;;;;;17.60;47.70;;;14.90;43.36;100234.06;5094845;28;19924;-61
2022/01/30 09:33:20;;;;;;;;;;;17.10;47.30;;;15.54;42.20;100313.97;5094642;28;19927;-61
2022/01/30 09:35:46;;;;;;;;;;;17.00;47.40;;;15.53;42.62;100324.44;5077116;28;19920;-61
2022/01/30 09:38:13;;;;;;;;;;;17.20;47.70;;;15.40;42.20;100318.56;5093665;28;20405;-61
2022/01/30 09:40:39;;;;;;;;;;;17.50;47.20;;;14.89;43.24;100282.59;5094643;28;20353;-62
2022/01/30 09:43:05;;;;;;;;;;;17.60;46.60;;;14.51;44.63;100327.00;5075615;28;20376;-60
2022/01/30 09:45:30;;;;;;;;;;;17.30;47.10;;;12.76;47.13;100302.16;5076220;28;20376;-61
2022/01/30 09:47:56;;;;;;;;;;;16.10;47.70;;;11.85;52.31;100324.44;5076656;28;20365;-61
2022/01/30 09:50:22;;;;;;;;;;;14.80;50.50;;;11.66;53.79;100335.06;5093976;28;19921;-62
2022/01/30 09:52:48;;;;;;;;;;;13.80;53.40;;;11.00;56.48;100324.44;5076470;28;19926;-61
2022/01/30 09:55:15;;;;;;;;;;;12.90;56.20;;;10.03;60.98;100289.56;5094237;28;19959;-60
2022/01/30 09:57:41;;;;;;;;;;;12.10;58.40;;;10.18;61.55;100329.16;5094394;28;20273;-61
2022/01/30 10:00:07;;;;;;;;;;;11.50;60.00;;;10.03;64.40;100333.41;5076071;28;19924;-60
2022/01/30 10:02:34;;;;;;;;;;;11.20;61.90;;;10.59;61.78;100326.84;5094382;28;19924;-60
2022/01/30 10:04:59;;;;;;;;;;;11.30;63.10;;;11.19;59.87;100322.44;5076359;28;19920;-61
2022/01/30 10:07:46;;;;;;;;;;;11.50;63.60;;;13.15;54.39;100329.75;5059365;28;19923;-61
2022/01/30 10:10:13;;;;;;;;;;;12.50;63.00;;;13.42;50.91;100290.75;5076281;28;19999;-60
2022/01/30 10:13:02;;;;;;;;;;;13.60;58.80;;;12.76;52.16;100354.78;5076215;28;19977;-60
2022/01/30 10:15:28;;;;;;;;;;;14.00;56.20;;;11.18;53.88;100309.59;5074954;28;20357;-61
2022/01/30 10:17:54;;;;;;;;;;;13.50;54.50;;;11.00;55.36;100319.28;5059083;28;20038;-61
2022/01/30 10:20:21;;;;;;;;;;;12.90;55.70;;;10.45;57.47;100324.22;5093591;28;20400;-60
2022/01/30 10:22:53;;;;;;;;;;;12.40;57.10;;;10.04;59.24;100319.59;5075942;28;19920;-61
2022/01/30 10:25:20;;;;;;;;;;;11.80;58.70;;;10.00;62.37;100366.25;5078938;28;19920;-60
2022/01/30 10:27:46;;;;;;;;;;;11.20;60.70;;;9.62;64.32;100345.09;5063855;28;19916;-62
2022/01/30 10:30:11;;;;;;;;;;;10.90;63.10;;;9.67;64.22;100368.88;5093633;28;19931;-62
2022/01/30 10:32:37;;;;;;;;;;;10.60;64.10;;;9.84;62.05;100368.81;5075959;28;19920;-62
2022/01/30 10:35:07;;;;;;;;;;;10.50;64.20;;;9.32;61.62;100327.75;5058848;28;19916;-62
2022/01/30 10:37:35;;;;;;;;;;;10.50;63.20;;;9.61;64.54;100366.63;5075757;28;19969;-61
2022/01/30 10:40:17;;;;;;;;;;;10.40;63.60;;;9.50;62.22;100337.09;5093499;28;19916;-62
2022/01/30 10:42:44;;;;;;;;;;;10.30;62.80;;;11.08;58.59;100376.47;5093977;28;19927;-62
2022/01/30 10:45:32;;;;;;;;;;;10.90;64.00;;;12.29;53.46;100372.53;5093121;28;19924;-62
2022/01/30 10:48:12;;;;;;;;;;;12.00;61.00;;;13.27;48.45;100344.47;5093686;28;19924;-61
2022/01/30 10:50:40;;;;;;;;;;;13.40;57.30;;;14.00;46.25;100366.13;5059202;28;20057;-62
2022/01/30 10:53:05;;;;;;;;;;;14.60;53.40;;;14.67;43.23;100361.28;5093605;28;19920;-62
2022/01/30 10:55:33;;;;;;;;;;;15.60;50.70;;;15.08;41.74;100350.41;5084140;28;19921;-62
2022/01/30 10:58:00;;;;;;;;;;;16.40;48.00;;;15.23;41.32;100357.03;5059707;28;19923;-63
2022/01/30 11:00:46;;;;;;;;;;;17.40;46.30;;;14.81;40.29;100345.53;5058963;28;19924;-61
2022/01/30 11:03:44;;;;;;;;;;;17.60;46.80;;;15.13;40.27;100358.72;5059258;28;20378;-61
2022/01/30 11:06:11;;;;;;;;;;;17.80;45.00;;;15.55;40.76;100344.22;5059582;28;19923;-62
2022/01/30 11:08:39;;;;;;;;;;;17.90;45.00;;;15.28;40.29;100283.91;5059651;28;20365;-63
2022/01/30 11:13:58;;;;;;;;;;;17.60;43.60;;;13.33;44.27;100325.94;5059536;28;19922;-62
2022/01/30 11:19:08;;;;;;;;;;;15.60;45.40;;;13.04;44.29;100353.75;5061613;28;20070;-59
2022/01/30 11:21:34;;;;;;;;;;;15.00;47.60;;;12.73;45.17;100356.72;5077393;28;19920;-61
2022/01/30 11:24:00;;;;;;;;;;;14.60;47.90;;;13.00;45.79;100362.69;5042647;28;19924;-62
2022/01/30 11:26:25;;;;;;;;;;;14.50;49.10;;;13.12;45.03;100364.44;5057166;28;20289;-62
2022/01/30 11:28:51;;;;;;;;;;;14.40;48.80;;;12.60;47.30;100361.84;5059139;28;19917;-62
2022/01/30 11:31:17;;;;;;;;;;;14.30;49.50;;;11.85;48.10;100365.81;5041878;28;19920;-62
2022/01/30 11:33:43;;;;;;;;;;;13.80;49.90;;;11.47;49.22;100360.34;5076506;28;19921;-62
2022/01/30 11:36:10;;;;;;;;;;;13.40;50.20;;;11.79;50.44;100371.34;5059100;28;19920;-64
2022/01/30 11:38:37;;;;;;;;;;;13.10;52.70;;;11.43;51.43;100366.63;5076835;28;20069;-63
2022/01/30 11:41:19;;;;;;;;;;;12.80;53.80;;;11.17;52.32;100362.19;5059119;28;19927;-63
2022/01/30 11:44:19;;;;;;;;;;;12.50;54.00;;;11.48;50.46;100350.84;5025753;28;19921;-62
2022/01/30 11:46:57;;;;;;;;;;;12.40;54.90;;;12.54;47.84;100346.72;5076611;28;20380;-60
2022/01/30 11:49:49;;;;;;;;;;;13.30;54.00;;;12.88;47.93;100342.75;5076333;28;20023;-61
2022/01/30 11:52:16;;;;;;;;;;;14.10;52.00;;;13.82;45.27;100330.28;5059181;28;19960;-61
2022/01/30 11:54:53;;;;;;;;;;;15.10;50.40;;;13.40;43.83;100318.56;5079240;28;19932;-61
2022/01/30 11:57:22;;;;;;;;;;;15.40;48.70;;;13.49;44.37;100317.91;5079041;28;19956;-62
2022/01/30 12:00:00;;;;;;;;;;;15.30;47.40;;;13.33;46.15;100311.22;5096649;28;19924;-61
2022/01/30 12:02:33;;;;;;;;;;;15.10;48.40;;;13.09;44.21;100253.25;5096401;28;19916;-61
2022/01/30 12:04:59;;;;;;;;;;;14.80;48.20;;;13.44;43.96;100292.28;5096365;28;20372;-62
2022/01/30 12:07:36;;;;;;;;;;;14.60;48.60;;;12.63;46.08;100255.53;5095533;28;19923;-60
2022/01/30 12:10:20;;;;;;;;;;;14.20;48.60;;;12.92;46.33;100279.47;5096289;28;20373;-61
2022/01/30 12:12:52;;;;;;;;;;;13.90;50.40;;;12.50;47.27;100294.34;5096476;28;19916;-61
2022/01/30 12:15:42;;;;;;;;;;;13.50;50.40;;;12.28;48.46;100293.25;5096081;28;19916;-60
2022/01/30 12:18:14;;;;;;;;;;;13.20;50.90;;;12.12;47.85;100288.22;5096206;28;20381;-62